sensor_id;sensor_type;location;lat;lon;timestamp;temperature;humidity
5017;DHT22;2527;50.892;16.706;2023-12-22T00:01:08;9.60;99.90
5017;DHT22;2527;50.892;16.706;2023-12-22T00:03:34;9.60;99.90
5017;DHT22;2527;50.892;16.706;2023-12-22T00:06:00;9.60;99.90
5017;DHT22;2527;50.892;16.706;2023-12-22T00:08:26;9.60;99.90
5017;DHT22;2527;50.892;16.706;2023-12-22T00:10:52;9.60;99.90
5017;DHT22;2527;50.892;16.706;2023-12-22T00:13:18;9.60;99.90
5017;DHT22;2527;50.892;16.706;2023-12-22T00:15:45;10.70;99.90
5017;DHT22;2527;50.892;16.706;2023-12-22T00:18:11;9.60;99.90
5017;DHT22;2527;50.892;16.706;2023-12-22T00:20:36;9.60;99.90
5017;DHT22;2527;50.892;16.706;2023-12-22T00:23:02;9.80;99.90
5017;DHT22;2527;50.892;16.706;2023-12-22T00:25:28;9.60;99.90
5017;DHT22;2527;50.892;16.706;2023-12-22T00:27:54;9.60;99.90
5017;DHT22;2527;50.892;16.706;2023-12-22T00:30:19;9.60;99.90
5017;DHT22;2527;50.892;16.706;2023-12-22T00:32:45;9.60;99.90
5017;DHT22;2527;50.892;16.706;2023-12-22T00:35:11;9.60;99.90
5017;DHT22;2527;50.892;16.706;2023-12-22T00:37:37;9.60;99.90
5017;DHT22;2527;50.892;16.706;2023-12-22T00:40:03;9.60;99.90
5017;DHT22;2527;50.892;16.706;2023-12-22T00:42:32;9.60;99.90
5017;DHT22;2527;50.892;16.706;2023-12-22T00:44:58;9.60;99.90
5017;DHT22;2527;50.892;16.706;2023-12-22T00:47:24;9.60;99.90
5017;DHT22;2527;50.892;16.706;2023-12-22T00:49:49;9.60;99.90
5017;DHT22;2527;50.892;16.706;2023-12-22T00:52:15;9.60;99.90
5017;DHT22;2527;50.892;16.706;2023-12-22T00:54:41;9.50;99.90
5017;DHT22;2527;50.892;16.706;2023-12-22T00:57:07;9.50;99.90
5017;DHT22;2527;50.892;16.706;2023-12-22T00:59:33;9.50;99.90
5017;DHT22;2527;50.892;16.706;2023-12-22T01:02:01;9.50;99.90
5017;DHT22;2527;50.892;16.706;2023-12-22T01:04:27;9.50;99.90
5017;DHT22;2527;50.892;16.706;2023-12-22T01:06:52;9.50;99.90
5017;DHT22;2527;50.892;16.706;2023-12-22T01:09:19;9.50;99.90
5017;DHT22;2527;50.892;16.706;2023-12-22T01:11:46;9.50;99.90
5017;DHT22;2527;50.892;16.706;2023-12-22T01:14:11;9.40;99.90
5017;DHT22;2527;50.892;16.706;2023-12-22T01:16:38;9.50;99.90
5017;DHT22;2527;50.892;16.706;2023-12-22T01:19:04;9.40;99.90
5017;DHT22;2527;50.892;16.706;2023-12-22T01:21:30;9.50;99.90
5017;DHT22;2527;50.892;16.706;2023-12-22T01:23:56;10.50;99.90
5017;DHT22;2527;50.892;16.706;2023-12-22T01:26:24;9.40;99.90
5017;DHT22;2527;50.892;16.706;2023-12-22T01:28:49;9.40;99.90
5017;DHT22;2527;50.892;16.706;2023-12-22T01:31:16;9.40;99.90
5017;DHT22;2527;50.892;16.706;2023-12-22T01:33:41;9.40;99.90
5017;DHT22;2527;50.892;16.706;2023-12-22T01:36:08;9.40;99.90
5017;DHT22;2527;50.892;16.706;2023-12-22T01:38:34;9.30;99.90
5017;DHT22;2527;50.892;16.706;2023-12-22T01:41:00;9.30;99.90
5017;DHT22;2527;50.892;16.706;2023-12-22T01:43:26;9.30;99.90
5017;DHT22;2527;50.892;16.706;2023-12-22T01:45:52;9.30;99.90
5017;DHT22;2527;50.892;16.706;2023-12-22T01:48:21;11.10;99.90
5017;DHT22;2527;50.892;16.706;2023-12-22T01:50:49;9.30;99.90
5017;DHT22;2527;50.892;16.706;2023-12-22T01:53:18;9.30;99.90
5017;DHT22;2527;50.892;16.706;2023-12-22T01:55:45;9.30;99.90
5017;DHT22;2527;50.892;16.706;2023-12-22T01:58:11;9.30;99.90
5017;DHT22;2527;50.892;16.706;2023-12-22T02:00:37;9.30;99.90
5017;DHT22;2527;50.892;16.706;2023-12-22T02:03:02;9.30;99.90
5017;DHT22;2527;50.892;16.706;2023-12-22T02:05:29;9.20;99.90
5017;DHT22;2527;50.892;16.706;2023-12-22T02:07:56;9.30;99.90
5017;DHT22;2527;50.892;16.706;2023-12-22T02:10:22;10.40;99.90
5017;DHT22;2527;50.892;16.706;2023-12-22T02:12:47;9.30;99.90
5017;DHT22;2527;50.892;16.706;2023-12-22T02:15:13;9.30;99.90
5017;DHT22;2527;50.892;16.706;2023-12-22T02:20:06;9.20;99.90
5017;DHT22;2527;50.892;16.706;2023-12-22T02:22:32;9.20;99.90
5017;DHT22;2527;50.892;16.706;2023-12-22T02:24:58;9.30;99.90
5017;DHT22;2527;50.892;16.706;2023-12-22T02:30:12;9.30;99.90
5017;DHT22;2527;50.892;16.706;2023-12-22T02:32:43;9.30;99.90
5017;DHT22;2527;50.892;16.706;2023-12-22T02:35:10;9.30;99.90
5017;DHT22;2527;50.892;16.706;2023-12-22T02:37:36;9.30;99.90
5017;DHT22;2527;50.892;16.706;2023-12-22T02:40:02;9.30;99.90
5017;DHT22;2527;50.892;16.706;2023-12-22T02:42:28;9.30;99.90
5017;DHT22;2527;50.892;16.706;2023-12-22T02:44:56;9.20;99.90
5017;DHT22;2527;50.892;16.706;2023-12-22T02:47:23;9.10;99.90
5017;DHT22;2527;50.892;16.706;2023-12-22T02:49:48;9.00;99.90
5017;DHT22;2527;50.892;16.706;2023-12-22T02:52:14;8.90;99.90
5017;DHT22;2527;50.892;16.706;2023-12-22T02:54:39;8.70;99.90
5017;DHT22;2527;50.892;16.706;2023-12-22T02:57:08;8.60;99.90
5017;DHT22;2527;50.892;16.706;2023-12-22T02:59:34;8.50;99.90
5017;DHT22;2527;50.892;16.706;2023-12-22T03:01:59;8.40;99.90
5017;DHT22;2527;50.892;16.706;2023-12-22T03:04:25;8.30;99.90
5017;DHT22;2527;50.892;16.706;2023-12-22T03:06:51;8.20;99.90
5017;DHT22;2527;50.892;16.706;2023-12-22T03:09:16;8.20;99.90
5017;DHT22;2527;50.892;16.706;2023-12-22T03:11:43;8.10;99.90
5017;DHT22;2527;50.892;16.706;2023-12-22T03:14:09;8.10;99.90
5017;DHT22;2527;50.892;16.706;2023-12-22T03:16:35;8.00;99.90
5017;DHT22;2527;50.892;16.706;2023-12-22T03:19:00;8.00;99.90
5017;DHT22;2527;50.892;16.706;2023-12-22T03:21:26;7.90;99.90
5017;DHT22;2527;50.892;16.706;2023-12-22T03:23:52;7.90;99.90
5017;DHT22;2527;50.892;16.706;2023-12-22T03:26:17;7.80;99.90
5017;DHT22;2527;50.892;16.706;2023-12-22T03:28:43;7.80;99.90
5017;DHT22;2527;50.892;16.706;2023-12-22T03:31:08;7.80;99.90
5017;DHT22;2527;50.892;16.706;2023-12-22T03:33:34;7.70;99.90
5017;DHT22;2527;50.892;16.706;2023-12-22T03:36:00;7.70;99.90
5017;DHT22;2527;50.892;16.706;2023-12-22T03:38:25;7.70;99.90
5017;DHT22;2527;50.892;16.706;2023-12-22T03:40:51;7.70;99.90
5017;DHT22;2527;50.892;16.706;2023-12-22T03:43:16;7.70;99.90
5017;DHT22;2527;50.892;16.706;2023-12-22T03:45:42;7.70;99.90
5017;DHT22;2527;50.892;16.706;2023-12-22T03:48:07;7.70;99.90
5017;DHT22;2527;50.892;16.706;2023-12-22T03:50:33;7.70;99.90
5017;DHT22;2527;50.892;16.706;2023-12-22T03:52:59;7.70;99.90
5017;DHT22;2527;50.892;16.706;2023-12-22T03:55:24;7.70;99.90
5017;DHT22;2527;50.892;16.706;2023-12-22T03:57:50;7.70;99.90
5017;DHT22;2527;50.892;16.706;2023-12-22T04:00:15;7.80;99.90
5017;DHT22;2527;50.892;16.706;2023-12-22T04:02:41;7.80;99.90
5017;DHT22;2527;50.892;16.706;2023-12-22T04:05:07;7.80;99.90
5017;DHT22;2527;50.892;16.706;2023-12-22T04:07:33;7.80;99.90
5017;DHT22;2527;50.892;16.706;2023-12-22T04:09:59;7.80;99.90
5017;DHT22;2527;50.892;16.706;2023-12-22T04:12:24;7.80;99.90
5017;DHT22;2527;50.892;16.706;2023-12-22T04:14:50;7.80;99.90
5017;DHT22;2527;50.892;16.706;2023-12-22T04:17:16;7.80;99.90
5017;DHT22;2527;50.892;16.706;2023-12-22T04:19:42;7.80;99.90
5017;DHT22;2527;50.892;16.706;2023-12-22T04:22:07;7.80;99.90
5017;DHT22;2527;50.892;16.706;2023-12-22T04:24:33;7.80;99.90
5017;DHT22;2527;50.892;16.706;2023-12-22T04:26:59;7.80;99.90
5017;DHT22;2527;50.892;16.706;2023-12-22T04:29:24;7.90;99.90
5017;DHT22;2527;50.892;16.706;2023-12-22T04:31:50;7.80;99.90
5017;DHT22;2527;50.892;16.706;2023-12-22T04:34:15;7.80;99.90
5017;DHT22;2527;50.892;16.706;2023-12-22T04:36:41;7.80;99.90
5017;DHT22;2527;50.892;16.706;2023-12-22T04:39:07;7.80;99.90
5017;DHT22;2527;50.892;16.706;2023-12-22T04:41:32;7.90;99.90
5017;DHT22;2527;50.892;16.706;2023-12-22T04:43:58;7.90;99.90
5017;DHT22;2527;50.892;16.706;2023-12-22T04:46:29;7.80;99.90
5017;DHT22;2527;50.892;16.706;2023-12-22T04:48:55;7.80;99.90
5017;DHT22;2527;50.892;16.706;2023-12-22T04:51:20;7.80;99.90
5017;DHT22;2527;50.892;16.706;2023-12-22T04:53:46;7.80;99.90
5017;DHT22;2527;50.892;16.706;2023-12-22T04:56:12;7.80;99.90
5017;DHT22;2527;50.892;16.706;2023-12-22T04:58:38;7.80;99.90
5017;DHT22;2527;50.892;16.706;2023-12-22T05:01:03;7.80;99.90
5017;DHT22;2527;50.892;16.706;2023-12-22T05:03:29;7.80;99.90
5017;DHT22;2527;50.892;16.706;2023-12-22T05:05:54;7.80;99.90
5017;DHT22;2527;50.892;16.706;2023-12-22T05:08:20;7.80;99.90
5017;DHT22;2527;50.892;16.706;2023-12-22T05:10:46;7.80;99.90
5017;DHT22;2527;50.892;16.706;2023-12-22T05:13:11;7.90;99.90
5017;DHT22;2527;50.892;16.706;2023-12-22T05:15:37;7.80;99.90
5017;DHT22;2527;50.892;16.706;2023-12-22T05:18:02;7.90;99.90
5017;DHT22;2527;50.892;16.706;2023-12-22T05:22:57;7.80;99.90
5017;DHT22;2527;50.892;16.706;2023-12-22T05:25:24;7.80;99.90
5017;DHT22;2527;50.892;16.706;2023-12-22T05:27:49;7.80;99.90
5017;DHT22;2527;50.892;16.706;2023-12-22T05:30:15;7.80;99.90
5017;DHT22;2527;50.892;16.706;2023-12-22T05:32:41;7.90;99.90
5017;DHT22;2527;50.892;16.706;2023-12-22T05:35:07;7.90;99.90
5017;DHT22;2527;50.892;16.706;2023-12-22T05:37:33;7.90;99.90
5017;DHT22;2527;50.892;16.706;2023-12-22T05:39:59;7.80;99.90
5017;DHT22;2527;50.892;16.706;2023-12-22T05:42:25;7.80;99.90
5017;DHT22;2527;50.892;16.706;2023-12-22T05:44:51;7.80;99.90
5017;DHT22;2527;50.892;16.706;2023-12-22T05:47:17;7.80;99.90
5017;DHT22;2527;50.892;16.706;2023-12-22T05:49:43;7.80;99.90
5017;DHT22;2527;50.892;16.706;2023-12-22T05:52:08;7.80;99.90
5017;DHT22;2527;50.892;16.706;2023-12-22T05:54:37;7.80;99.90
5017;DHT22;2527;50.892;16.706;2023-12-22T05:57:03;7.80;99.90
5017;DHT22;2527;50.892;16.706;2023-12-22T05:59:30;7.80;99.90
5017;DHT22;2527;50.892;16.706;2023-12-22T06:02:00;7.70;99.90
5017;DHT22;2527;50.892;16.706;2023-12-22T06:04:26;7.70;99.90
5017;DHT22;2527;50.892;16.706;2023-12-22T06:06:52;7.80;99.90
5017;DHT22;2527;50.892;16.706;2023-12-22T06:09:18;7.80;99.90
5017;DHT22;2527;50.892;16.706;2023-12-22T06:11:46;7.80;99.90
5017;DHT22;2527;50.892;16.706;2023-12-22T06:14:12;7.80;99.90
5017;DHT22;2527;50.892;16.706;2023-12-22T06:16:38;7.80;99.90
5017;DHT22;2527;50.892;16.706;2023-12-22T06:19:04;7.80;99.90
5017;DHT22;2527;50.892;16.706;2023-12-22T06:21:30;7.80;99.90
5017;DHT22;2527;50.892;16.706;2023-12-22T06:23:55;7.80;99.90
5017;DHT22;2527;50.892;16.706;2023-12-22T06:26:21;7.80;99.90
5017;DHT22;2527;50.892;16.706;2023-12-22T06:28:47;7.80;99.90
5017;DHT22;2527;50.892;16.706;2023-12-22T06:31:19;7.80;99.90
5017;DHT22;2527;50.892;16.706;2023-12-22T06:33:46;7.80;99.90
5017;DHT22;2527;50.892;16.706;2023-12-22T06:36:18;7.80;99.90
5017;DHT22;2527;50.892;16.706;2023-12-22T06:38:44;7.80;99.90
5017;DHT22;2527;50.892;16.706;2023-12-22T06:43:44;7.80;99.90
5017;DHT22;2527;50.892;16.706;2023-12-22T06:46:17;7.70;99.90
5017;DHT22;2527;50.892;16.706;2023-12-22T06:48:43;7.70;99.90
5017;DHT22;2527;50.892;16.706;2023-12-22T06:51:19;7.70;99.90
5017;DHT22;2527;50.892;16.706;2023-12-22T06:53:45;7.60;99.90
5017;DHT22;2527;50.892;16.706;2023-12-22T06:56:17;7.60;99.90
5017;DHT22;2527;50.892;16.706;2023-12-22T06:58:43;7.60;99.90
5017;DHT22;2527;50.892;16.706;2023-12-22T07:01:09;7.60;99.90
5017;DHT22;2527;50.892;16.706;2023-12-22T07:03:36;7.50;99.90
5017;DHT22;2527;50.892;16.706;2023-12-22T07:06:03;7.50;99.90
5017;DHT22;2527;50.892;16.706;2023-12-22T07:08:29;7.50;99.90
5017;DHT22;2527;50.892;16.706;2023-12-22T07:10:54;7.50;99.90
5017;DHT22;2527;50.892;16.706;2023-12-22T07:13:20;7.50;99.90
5017;DHT22;2527;50.892;16.706;2023-12-22T07:15:46;7.50;99.90
5017;DHT22;2527;50.892;16.706;2023-12-22T07:18:11;7.50;99.90
5017;DHT22;2527;50.892;16.706;2023-12-22T07:20:38;7.50;99.90
5017;DHT22;2527;50.892;16.706;2023-12-22T07:23:04;7.50;99.90
5017;DHT22;2527;50.892;16.706;2023-12-22T07:25:34;7.50;99.90
5017;DHT22;2527;50.892;16.706;2023-12-22T07:27:59;7.50;99.90
5017;DHT22;2527;50.892;16.706;2023-12-22T07:30:25;7.60;99.90
5017;DHT22;2527;50.892;16.706;2023-12-22T07:32:52;7.60;99.90
5017;DHT22;2527;50.892;16.706;2023-12-22T07:35:19;7.60;99.90
5017;DHT22;2527;50.892;16.706;2023-12-22T07:37:44;7.70;99.90
5017;DHT22;2527;50.892;16.706;2023-12-22T07:40:10;7.60;99.90
5017;DHT22;2527;50.892;16.706;2023-12-22T07:42:36;7.60;99.90
5017;DHT22;2527;50.892;16.706;2023-12-22T07:45:02;7.60;99.90
5017;DHT22;2527;50.892;16.706;2023-12-22T07:47:28;7.60;99.90
5017;DHT22;2527;50.892;16.706;2023-12-22T07:49:54;7.50;99.90
5017;DHT22;2527;50.892;16.706;2023-12-22T07:52:19;7.50;99.90
5017;DHT22;2527;50.892;16.706;2023-12-22T07:54:45;7.50;99.90
5017;DHT22;2527;50.892;16.706;2023-12-22T07:57:12;7.50;99.90
5017;DHT22;2527;50.892;16.706;2023-12-22T07:59:38;7.40;99.90
5017;DHT22;2527;50.892;16.706;2023-12-22T08:02:04;7.50;99.90
5017;DHT22;2527;50.892;16.706;2023-12-22T08:04:29;7.50;99.90
5017;DHT22;2527;50.892;16.706;2023-12-22T08:06:55;7.40;99.90
5017;DHT22;2527;50.892;16.706;2023-12-22T08:09:21;7.50;99.90
5017;DHT22;2527;50.892;16.706;2023-12-22T08:11:48;7.50;99.90
5017;DHT22;2527;50.892;16.706;2023-12-22T08:14:18;7.50;99.90
5017;DHT22;2527;50.892;16.706;2023-12-22T08:16:44;7.60;99.90
5017;DHT22;2527;50.892;16.706;2023-12-22T08:19:10;7.60;99.90
5017;DHT22;2527;50.892;16.706;2023-12-22T08:21:35;7.70;99.90
5017;DHT22;2527;50.892;16.706;2023-12-22T08:24:01;7.70;99.90
5017;DHT22;2527;50.892;16.706;2023-12-22T08:26:27;7.70;99.90
5017;DHT22;2527;50.892;16.706;2023-12-22T08:28:53;7.70;99.90
5017;DHT22;2527;50.892;16.706;2023-12-22T08:31:19;7.80;99.90
5017;DHT22;2527;50.892;16.706;2023-12-22T08:33:44;7.80;99.90
5017;DHT22;2527;50.892;16.706;2023-12-22T08:36:10;7.80;99.90
5017;DHT22;2527;50.892;16.706;2023-12-22T08:38:37;7.80;99.90
5017;DHT22;2527;50.892;16.706;2023-12-22T08:41:07;7.90;99.90
5017;DHT22;2527;50.892;16.706;2023-12-22T08:43:36;7.80;99.90
5017;DHT22;2527;50.892;16.706;2023-12-22T08:46:01;7.80;99.90
5017;DHT22;2527;50.892;16.706;2023-12-22T08:48:27;7.70;99.90
5017;DHT22;2527;50.892;16.706;2023-12-22T08:50:53;7.60;99.90
5017;DHT22;2527;50.892;16.706;2023-12-22T08:53:19;9.60;99.90
5017;DHT22;2527;50.892;16.706;2023-12-22T08:55:45;7.50;99.90
5017;DHT22;2527;50.892;16.706;2023-12-22T08:58:10;7.40;99.90
5017;DHT22;2527;50.892;16.706;2023-12-22T09:00:36;7.40;99.90
5017;DHT22;2527;50.892;16.706;2023-12-22T09:03:02;7.40;99.90
5017;DHT22;2527;50.892;16.706;2023-12-22T09:05:27;7.40;99.90
5017;DHT22;2527;50.892;16.706;2023-12-22T09:07:53;7.30;99.90
5017;DHT22;2527;50.892;16.706;2023-12-22T09:10:20;7.30;99.90
5017;DHT22;2527;50.892;16.706;2023-12-22T09:12:45;7.40;99.90
5017;DHT22;2527;50.892;16.706;2023-12-22T09:15:11;7.30;99.90
5017;DHT22;2527;50.892;16.706;2023-12-22T09:17:37;7.40;99.90
5017;DHT22;2527;50.892;16.706;2023-12-22T09:20:02;6.80;99.90
5017;DHT22;2527;50.892;16.706;2023-12-22T09:22:28;7.40;99.90
5017;DHT22;2527;50.892;16.706;2023-12-22T09:24:54;7.30;99.90
5017;DHT22;2527;50.892;16.706;2023-12-22T09:27:20;7.30;99.90
5017;DHT22;2527;50.892;16.706;2023-12-22T09:29:45;7.30;99.90
5017;DHT22;2527;50.892;16.706;2023-12-22T09:32:11;7.30;99.90
5017;DHT22;2527;50.892;16.706;2023-12-22T09:34:37;7.30;99.90
5017;DHT22;2527;50.892;16.706;2023-12-22T09:37:02;7.40;99.90
5017;DHT22;2527;50.892;16.706;2023-12-22T09:39:28;7.40;99.90
5017;DHT22;2527;50.892;16.706;2023-12-22T09:41:54;7.40;99.90
5017;DHT22;2527;50.892;16.706;2023-12-22T09:44:20;7.40;99.90
5017;DHT22;2527;50.892;16.706;2023-12-22T09:46:47;7.50;99.90
5017;DHT22;2527;50.892;16.706;2023-12-22T09:49:14;7.50;99.90
5017;DHT22;2527;50.892;16.706;2023-12-22T09:51:40;7.50;99.90
5017;DHT22;2527;50.892;16.706;2023-12-22T09:54:06;7.50;99.90
5017;DHT22;2527;50.892;16.706;2023-12-22T09:56:32;7.50;99.90
5017;DHT22;2527;50.892;16.706;2023-12-22T09:58:58;7.50;99.90
5017;DHT22;2527;50.892;16.706;2023-12-22T10:01:25;7.50;99.90
5017;DHT22;2527;50.892;16.706;2023-12-22T10:03:51;7.60;99.90
5017;DHT22;2527;50.892;16.706;2023-12-22T10:06:17;7.60;99.90
5017;DHT22;2527;50.892;16.706;2023-12-22T10:08:44;7.60;99.90
5017;DHT22;2527;50.892;16.706;2023-12-22T10:11:10;7.60;99.90
5017;DHT22;2527;50.892;16.706;2023-12-22T10:13:36;7.60;99.90
5017;DHT22;2527;50.892;16.706;2023-12-22T10:16:06;7.60;99.90
5017;DHT22;2527;50.892;16.706;2023-12-22T10:18:32;7.60;99.90
5017;DHT22;2527;50.892;16.706;2023-12-22T10:20:58;7.60;99.90
5017;DHT22;2527;50.892;16.706;2023-12-22T10:23:25;7.60;99.90
5017;DHT22;2527;50.892;16.706;2023-12-22T10:25:51;7.60;99.90
5017;DHT22;2527;50.892;16.706;2023-12-22T10:28:17;7.70;99.90
5017;DHT22;2527;50.892;16.706;2023-12-22T10:30:47;7.70;99.90
5017;DHT22;2527;50.892;16.706;2023-12-22T10:33:13;7.70;99.90
5017;DHT22;2527;50.892;16.706;2023-12-22T10:35:40;7.70;99.90
5017;DHT22;2527;50.892;16.706;2023-12-22T10:38:06;7.70;99.90
5017;DHT22;2527;50.892;16.706;2023-12-22T10:40:32;7.80;99.90
5017;DHT22;2527;50.892;16.706;2023-12-22T10:42:59;7.80;99.90
5017;DHT22;2527;50.892;16.706;2023-12-22T10:45:25;7.80;99.90
5017;DHT22;2527;50.892;16.706;2023-12-22T10:47:51;7.80;99.90
5017;DHT22;2527;50.892;16.706;2023-12-22T10:50:18;7.80;99.90
5017;DHT22;2527;50.892;16.706;2023-12-22T10:52:48;7.80;99.90
5017;DHT22;2527;50.892;16.706;2023-12-22T10:55:15;7.90;99.90
5017;DHT22;2527;50.892;16.706;2023-12-22T10:57:40;7.80;99.90
5017;DHT22;2527;50.892;16.706;2023-12-22T11:00:06;7.80;99.90
5017;DHT22;2527;50.892;16.706;2023-12-22T11:02:35;7.70;99.90
5017;DHT22;2527;50.892;16.706;2023-12-22T11:05:04;7.70;99.90
5017;DHT22;2527;50.892;16.706;2023-12-22T11:07:32;7.60;99.90
5017;DHT22;2527;50.892;16.706;2023-12-22T11:10:00;7.60;99.90
5017;DHT22;2527;50.892;16.706;2023-12-22T11:12:35;7.50;99.90
5017;DHT22;2527;50.892;16.706;2023-12-22T11:15:03;7.50;99.90
5017;DHT22;2527;50.892;16.706;2023-12-22T11:17:31;7.50;99.90
5017;DHT22;2527;50.892;16.706;2023-12-22T11:19:57;7.50;99.90
5017;DHT22;2527;50.892;16.706;2023-12-22T11:22:23;7.50;99.90
5017;DHT22;2527;50.892;16.706;2023-12-22T11:24:49;7.60;99.90
5017;DHT22;2527;50.892;16.706;2023-12-22T11:27:16;7.60;99.90
5017;DHT22;2527;50.892;16.706;2023-12-22T11:29:42;7.60;99.90
5017;DHT22;2527;50.892;16.706;2023-12-22T11:32:09;7.70;99.90
5017;DHT22;2527;50.892;16.706;2023-12-22T11:34:37;7.70;99.90
5017;DHT22;2527;50.892;16.706;2023-12-22T11:37:03;7.70;99.90
5017;DHT22;2527;50.892;16.706;2023-12-22T11:39:29;7.70;99.90
5017;DHT22;2527;50.892;16.706;2023-12-22T11:41:55;7.70;99.90
5017;DHT22;2527;50.892;16.706;2023-12-22T11:44:23;7.70;99.90
5017;DHT22;2527;50.892;16.706;2023-12-22T11:46:49;7.80;99.90
5017;DHT22;2527;50.892;16.706;2023-12-22T11:49:16;7.80;99.90
5017;DHT22;2527;50.892;16.706;2023-12-22T11:51:42;7.80;99.90
5017;DHT22;2527;50.892;16.706;2023-12-22T11:57:12;7.80;99.90
5017;DHT22;2527;50.892;16.706;2023-12-22T12:02:36;7.90;99.90
5017;DHT22;2527;50.892;16.706;2023-12-22T12:05:03;7.90;99.90
5017;DHT22;2527;50.892;16.706;2023-12-22T12:13:06;7.90;99.90
5017;DHT22;2527;50.892;16.706;2023-12-22T12:15:35;7.90;99.90
5017;DHT22;2527;50.892;16.706;2023-12-22T12:18:01;7.90;99.90
5017;DHT22;2527;50.892;16.706;2023-12-22T12:20:27;7.90;99.90
5017;DHT22;2527;50.892;16.706;2023-12-22T12:22:53;7.90;99.90
5017;DHT22;2527;50.892;16.706;2023-12-22T12:25:22;7.90;99.90
5017;DHT22;2527;50.892;16.706;2023-12-22T12:28:00;7.90;99.90
5017;DHT22;2527;50.892;16.706;2023-12-22T12:30:29;8.00;99.90
5017;DHT22;2527;50.892;16.706;2023-12-22T12:32:58;8.00;99.90
5017;DHT22;2527;50.892;16.706;2023-12-22T12:35:28;8.00;99.90
5017;DHT22;2527;50.892;16.706;2023-12-22T12:37:54;8.00;99.90
5017;DHT22;2527;50.892;16.706;2023-12-22T12:40:20;8.00;99.90
5017;DHT22;2527;50.892;16.706;2023-12-22T12:42:49;8.00;99.90
5017;DHT22;2527;50.892;16.706;2023-12-22T12:45:15;8.00;99.90
5017;DHT22;2527;50.892;16.706;2023-12-22T12:48:08;8.00;99.90
5017;DHT22;2527;50.892;16.706;2023-12-22T12:50:33;8.00;99.90
5017;DHT22;2527;50.892;16.706;2023-12-22T12:52:58;8.00;99.90
5017;DHT22;2527;50.892;16.706;2023-12-22T12:55:24;8.00;99.90
5017;DHT22;2527;50.892;16.706;2023-12-22T12:57:52;8.10;99.90
5017;DHT22;2527;50.892;16.706;2023-12-22T13:00:24;8.10;99.90
5017;DHT22;2527;50.892;16.706;2023-12-22T13:02:50;8.10;99.90
5017;DHT22;2527;50.892;16.706;2023-12-22T13:05:20;8.10;99.90
5017;DHT22;2527;50.892;16.706;2023-12-22T13:07:46;8.10;99.90
5017;DHT22;2527;50.892;16.706;2023-12-22T13:10:24;8.10;99.90
5017;DHT22;2527;50.892;16.706;2023-12-22T13:12:54;8.20;99.90
5017;DHT22;2527;50.892;16.706;2023-12-22T13:15:20;8.20;99.90
5017;DHT22;2527;50.892;16.706;2023-12-22T13:17:49;8.20;99.90
5017;DHT22;2527;50.892;16.706;2023-12-22T13:20:15;8.20;99.90
5017;DHT22;2527;50.892;16.706;2023-12-22T13:22:43;8.20;99.90
5017;DHT22;2527;50.892;16.706;2023-12-22T13:25:11;8.20;99.90
5017;DHT22;2527;50.892;16.706;2023-12-22T13:27:50;8.20;99.90
5017;DHT22;2527;50.892;16.706;2023-12-22T13:30:31;8.20;99.90
5017;DHT22;2527;50.892;16.706;2023-12-22T13:32:57;8.10;99.90
5017;DHT22;2527;50.892;16.706;2023-12-22T13:35:23;8.10;99.90
5017;DHT22;2527;50.892;16.706;2023-12-22T13:37:49;8.20;99.90
5017;DHT22;2527;50.892;16.706;2023-12-22T13:40:15;8.10;99.90
5017;DHT22;2527;50.892;16.706;2023-12-22T13:42:41;8.10;99.90
5017;DHT22;2527;50.892;16.706;2023-12-22T13:45:11;8.10;99.90
5017;DHT22;2527;50.892;16.706;2023-12-22T13:47:41;8.10;99.90
5017;DHT22;2527;50.892;16.706;2023-12-22T13:50:14;8.00;99.90
5017;DHT22;2527;50.892;16.706;2023-12-22T13:52:41;8.00;99.90
5017;DHT22;2527;50.892;16.706;2023-12-22T13:55:10;8.00;99.90
5017;DHT22;2527;50.892;16.706;2023-12-22T13:57:36;8.00;99.90
5017;DHT22;2527;50.892;16.706;2023-12-22T14:00:02;8.00;99.90
5017;DHT22;2527;50.892;16.706;2023-12-22T14:02:48;8.00;99.90
5017;DHT22;2527;50.892;16.706;2023-12-22T14:05:14;8.00;99.90
5017;DHT22;2527;50.892;16.706;2023-12-22T14:07:40;8.00;99.90
5017;DHT22;2527;50.892;16.706;2023-12-22T14:10:06;8.00;99.90
5017;DHT22;2527;50.892;16.706;2023-12-22T14:12:32;8.00;99.90
5017;DHT22;2527;50.892;16.706;2023-12-22T14:14:57;8.00;99.90
5017;DHT22;2527;50.892;16.706;2023-12-22T14:17:23;8.00;99.90
5017;DHT22;2527;50.892;16.706;2023-12-22T14:19:49;8.00;99.90
5017;DHT22;2527;50.892;16.706;2023-12-22T14:22:15;8.00;99.90
5017;DHT22;2527;50.892;16.706;2023-12-22T14:24:41;7.90;99.90
5017;DHT22;2527;50.892;16.706;2023-12-22T14:27:06;8.00;99.90
5017;DHT22;2527;50.892;16.706;2023-12-22T14:29:32;8.00;99.90
5017;DHT22;2527;50.892;16.706;2023-12-22T14:32:00;8.00;99.90
5017;DHT22;2527;50.892;16.706;2023-12-22T14:34:26;8.00;99.90
5017;DHT22;2527;50.892;16.706;2023-12-22T14:36:51;8.00;99.90
5017;DHT22;2527;50.892;16.706;2023-12-22T14:39:17;8.00;99.90
5017;DHT22;2527;50.892;16.706;2023-12-22T14:41:43;7.90;99.90
5017;DHT22;2527;50.892;16.706;2023-12-22T14:44:09;7.90;99.90
5017;DHT22;2527;50.892;16.706;2023-12-22T14:46:38;7.90;99.90
5017;DHT22;2527;50.892;16.706;2023-12-22T14:49:05;7.90;99.90
5017;DHT22;2527;50.892;16.706;2023-12-22T14:51:34;7.90;99.90
5017;DHT22;2527;50.892;16.706;2023-12-22T14:54:01;7.90;99.90
5017;DHT22;2527;50.892;16.706;2023-12-22T14:56:27;7.80;99.90
5017;DHT22;2527;50.892;16.706;2023-12-22T14:58:52;7.80;99.90
5017;DHT22;2527;50.892;16.706;2023-12-22T15:01:18;7.80;99.90
5017;DHT22;2527;50.892;16.706;2023-12-22T15:03:45;7.80;99.90
5017;DHT22;2527;50.892;16.706;2023-12-22T15:06:10;7.80;99.90
5017;DHT22;2527;50.892;16.706;2023-12-22T15:08:36;7.80;99.90
5017;DHT22;2527;50.892;16.706;2023-12-22T15:11:02;7.80;99.90
5017;DHT22;2527;50.892;16.706;2023-12-22T15:13:27;7.80;99.90
5017;DHT22;2527;50.892;16.706;2023-12-22T15:15:53;7.80;99.90
5017;DHT22;2527;50.892;16.706;2023-12-22T15:18:19;7.80;99.90
5017;DHT22;2527;50.892;16.706;2023-12-22T15:20:45;7.80;99.90
5017;DHT22;2527;50.892;16.706;2023-12-22T15:23:11;7.80;99.90
5017;DHT22;2527;50.892;16.706;2023-12-22T15:25:38;7.70;99.90
5017;DHT22;2527;50.892;16.706;2023-12-22T15:28:03;7.70;99.90
5017;DHT22;2527;50.892;16.706;2023-12-22T15:30:29;7.70;99.90
5017;DHT22;2527;50.892;16.706;2023-12-22T15:32:55;7.70;99.90
5017;DHT22;2527;50.892;16.706;2023-12-22T15:35:21;7.70;99.90
5017;DHT22;2527;50.892;16.706;2023-12-22T15:37:47;7.70;99.90
5017;DHT22;2527;50.892;16.706;2023-12-22T15:40:12;7.70;99.90
5017;DHT22;2527;50.892;16.706;2023-12-22T15:42:38;7.70;99.90
5017;DHT22;2527;50.892;16.706;2023-12-22T15:45:04;7.80;99.90
5017;DHT22;2527;50.892;16.706;2023-12-22T15:47:31;7.80;99.90
5017;DHT22;2527;50.892;16.706;2023-12-22T15:49:56;7.80;99.90
5017;DHT22;2527;50.892;16.706;2023-12-22T15:52:22;7.80;99.90
5017;DHT22;2527;50.892;16.706;2023-12-22T15:54:48;7.90;99.90
5017;DHT22;2527;50.892;16.706;2023-12-22T15:57:14;7.80;99.90
5017;DHT22;2527;50.892;16.706;2023-12-22T15:59:41;7.90;99.90
5017;DHT22;2527;50.892;16.706;2023-12-22T16:02:07;7.90;99.90
5017;DHT22;2527;50.892;16.706;2023-12-22T16:04:33;7.90;99.90
5017;DHT22;2527;50.892;16.706;2023-12-22T16:06:59;7.90;99.90
5017;DHT22;2527;50.892;16.706;2023-12-22T16:09:24;7.90;99.90
5017;DHT22;2527;50.892;16.706;2023-12-22T16:11:50;7.90;99.90
5017;DHT22;2527;50.892;16.706;2023-12-22T16:14:16;7.90;99.90
5017;DHT22;2527;50.892;16.706;2023-12-22T16:16:42;7.90;99.90
5017;DHT22;2527;50.892;16.706;2023-12-22T16:19:07;7.90;99.90